createdAt,value
2023-02-16T00:00:28.710Z,-1.90
2023-02-16T00:05:00.814Z,-1.91
2023-02-16T00:09:30.172Z,-1.94
2023-02-16T00:14:03.613Z,-1.91
2023-02-16T00:18:33.874Z,-1.94
2023-02-16T00:23:04.050Z,-1.90
2023-02-16T00:26:57.544Z,-1.86
2023-02-16T00:30:28.708Z,-1.92
2023-02-16T00:34:00.206Z,-1.89
2023-02-16T00:37:39.875Z,-1.85
2023-02-16T00:41:14.851Z,-1.82
2023-02-16T00:44:48.263Z,-1.88
2023-02-16T00:48:18.508Z,-1.99
2023-02-16T00:52:50.412Z,-2.03
2023-02-16T00:56:01.959Z,-2.04
2023-02-16T00:58:31.444Z,-1.99
2023-02-16T01:01:57.183Z,-1.93
2023-02-16T01:05:28.283Z,-1.95
2023-02-16T01:08:58.358Z,-1.93
2023-02-16T01:12:33.594Z,-1.89
2023-02-16T01:17:05.986Z,-1.97
2023-02-16T01:21:38.586Z,-1.97
2023-02-16T01:26:08.199Z,-2.06
2023-02-16T01:30:38.925Z,-2.08
2023-02-16T01:35:09.595Z,-2.08
2023-02-16T01:39:40.090Z,-2.12
2023-02-16T01:44:04.161Z,-2.13
2023-02-16T01:48:39.478Z,-2.07
2023-02-16T01:52:42.574Z,-2.02
2023-02-16T01:56:03.508Z,-1.88
2023-02-16T01:59:54.646Z,-1.74
2023-02-16T02:03:08.435Z,-1.70
2023-02-16T02:07:38.254Z,-1.67
2023-02-16T02:11:57.825Z,-1.61
2023-02-16T02:16:28.605Z,-1.64
2023-02-16T02:20:51.967Z,-1.59
2023-02-16T02:25:24.668Z,-1.60
2023-02-16T02:29:45.530Z,-1.66
2023-02-16T02:34:08.954Z,-1.65
2023-02-16T02:38:38.617Z,-1.62
2023-02-16T02:43:07.633Z,-1.60
2023-02-16T02:47:39.273Z,-1.71
2023-02-16T02:52:16.196Z,-1.69
2023-02-16T02:56:55.869Z,-1.72
2023-02-16T03:01:08.444Z,-1.75
2023-02-16T03:05:10.752Z,-1.67
2023-02-16T03:09:48.593Z,-1.66
2023-02-16T03:14:19.306Z,-1.64
2023-02-16T03:18:42.934Z,-1.74
2023-02-16T03:23:08.234Z,-1.82
2023-02-16T03:27:31.394Z,-1.79
2023-02-16T03:32:01.859Z,-1.75
2023-02-16T03:36:13.866Z,-1.79
2023-02-16T03:40:50.325Z,-1.79
2023-02-16T03:44:38.408Z,-1.81
2023-02-16T03:50:44.137Z,-1.80
2023-02-16T03:55:15.149Z,-1.77
2023-02-16T03:59:46.116Z,-1.76
2023-02-16T04:03:57.342Z,-1.73
2023-02-16T04:08:27.998Z,-1.75
2023-02-16T04:12:58.009Z,-1.71
2023-02-16T04:17:29.241Z,-1.63
2023-02-16T04:21:59.079Z,-1.70
2023-02-16T04:26:10.912Z,-1.86
2023-02-16T04:28:40.396Z,-1.94
2023-02-16T04:31:10.020Z,-1.95
2023-02-16T04:35:28.678Z,-1.98
2023-02-16T04:39:59.093Z,-2.02
2023-02-16T04:44:28.862Z,-2.01
2023-02-16T04:49:01.087Z,-2.13
2023-02-16T04:53:32.725Z,-2.11
2023-02-16T04:58:02.679Z,-2.12
2023-02-16T05:02:32.948Z,-2.24
2023-02-16T05:07:02.400Z,-2.27
2023-02-16T05:10:13.938Z,-2.23
2023-02-16T05:12:56.745Z,-2.32
2023-02-16T05:20:13.500Z,-2.34
2023-02-16T05:24:43.299Z,-2.35
2023-02-16T05:29:12.749Z,-2.29
2023-02-16T05:33:44.269Z,-2.21
2023-02-16T05:38:13.905Z,-2.14
2023-02-16T05:42:45.959Z,-2.05
2023-02-16T05:47:16.464Z,-1.89
2023-02-16T05:51:46.882Z,-1.71
2023-02-16T05:55:12.783Z,-1.60
2023-02-16T05:57:41.755Z,-1.47
2023-02-16T06:00:43.954Z,-1.38
2023-02-16T06:03:12.107Z,-1.29
2023-02-16T06:05:40.489Z,-1.22
2023-02-16T06:11:07.229Z,-1.13
2023-02-16T06:13:50.401Z,-1.11
2023-02-16T06:16:18.906Z,-1.08
2023-02-16T06:18:47.164Z,-1.00
2023-02-16T06:21:29.939Z,-0.90
2023-02-16T06:24:13.980Z,-0.78
2023-02-16T06:26:42.348Z,-0.70
2023-02-16T06:29:11.142Z,-0.59
2023-02-16T06:31:39.532Z,-0.49
2023-02-16T06:34:07.870Z,-0.41
2023-02-16T06:36:36.236Z,-0.38
2023-02-16T06:39:18.529Z,-0.26
2023-02-16T06:41:47.088Z,-0.14
2023-02-16T06:44:16.677Z,-0.04
2023-02-16T06:46:58.710Z,0.04
2023-02-16T06:49:27.874Z,0.09
2023-02-16T06:54:52.185Z,0.25
2023-02-16T06:57:20.518Z,0.36
2023-02-16T07:00:05.938Z,0.52
2023-02-16T07:02:35.878Z,0.67
2023-02-16T07:05:04.677Z,0.81
2023-02-16T07:07:33.039Z,0.91
2023-02-16T07:10:02.953Z,1.02
2023-02-16T07:12:44.847Z,1.12
2023-02-16T07:15:27.036Z,1.20
2023-02-16T07:18:09.314Z,1.25
2023-02-16T07:23:34.900Z,1.37
2023-02-16T07:26:16.956Z,1.43
2023-02-16T07:28:45.316Z,1.49
2023-02-16T07:31:16.446Z,1.55
2023-02-16T07:33:45.731Z,1.60
2023-02-16T07:36:27.949Z,1.63
2023-02-16T07:38:56.401Z,1.70
2023-02-16T07:41:24.612Z,1.75
2023-02-16T07:43:54.112Z,1.83
2023-02-16T07:46:22.601Z,1.90
2023-02-16T07:51:47.373Z,2.07
2023-02-16T07:54:15.585Z,2.15
2023-02-16T07:59:26.210Z,2.36
2023-02-16T08:02:15.712Z,2.45
2023-02-16T08:04:58.372Z,2.52
2023-02-16T08:07:28.194Z,2.58
2023-02-16T08:09:57.212Z,2.64
2023-02-16T08:12:26.472Z,2.70
2023-02-16T08:14:54.594Z,2.77
2023-02-16T08:17:22.973Z,2.83
2023-02-16T08:19:51.237Z,2.90
2023-02-16T08:22:19.536Z,2.98
2023-02-16T08:25:01.756Z,3.04
2023-02-16T08:27:30.700Z,3.13
2023-02-16T08:30:14.089Z,3.25
2023-02-16T08:33:01.159Z,3.37
2023-02-16T08:35:43.317Z,3.45
2023-02-16T08:38:12.191Z,3.54
2023-02-16T08:40:49.445Z,3.63
2023-02-16T08:43:18.513Z,3.73
2023-02-16T08:45:48.620Z,3.82
2023-02-16T08:48:18.323Z,3.92
2023-02-16T08:50:53.830Z,3.99
2023-02-16T08:53:25.626Z,4.08
2023-02-16T08:56:10.136Z,4.16
2023-02-16T08:58:39.837Z,4.21
2023-02-16T09:01:10.901Z,4.26
2023-02-16T09:03:43.223Z,4.34
2023-02-16T09:08:58.445Z,4.56
2023-02-16T09:11:29.512Z,4.65
2023-02-16T09:14:02.105Z,4.71
2023-02-16T09:16:34.947Z,4.80
2023-02-16T09:19:03.541Z,4.88
2023-02-16T09:21:47.295Z,4.98
2023-02-16T09:24:16.444Z,5.06
2023-02-16T09:26:58.678Z,5.11
2023-02-16T09:29:27.232Z,5.15
2023-02-16T09:31:56.210Z,5.20
2023-02-16T09:34:30.485Z,5.24
2023-02-16T09:37:22.922Z,5.24
2023-02-16T09:40:11.800Z,5.29
2023-02-16T09:43:27.032Z,5.33
2023-02-16T09:46:01.584Z,5.40
2023-02-16T09:48:50.856Z,5.47
2023-02-16T09:51:34.832Z,5.53
2023-02-16T09:54:48.490Z,5.58
2023-02-16T09:57:58.764Z,5.65
2023-02-16T10:00:35.334Z,5.76
2023-02-16T10:03:15.345Z,5.86
2023-02-16T10:06:06.897Z,5.97
2023-02-16T10:08:55.937Z,6.07
2023-02-16T10:11:49.508Z,6.11
2023-02-16T10:14:25.302Z,6.22
2023-02-16T10:17:09.756Z,6.31
2023-02-16T10:20:06.390Z,6.39
2023-02-16T10:22:58.900Z,6.45
2023-02-16T10:25:58.004Z,6.50
2023-02-16T10:28:53.973Z,6.55
2023-02-16T10:32:04.486Z,6.63
2023-02-16T10:34:55.985Z,6.73
2023-02-16T10:37:48.035Z,6.83
2023-02-16T10:40:39.691Z,6.93
2023-02-16T10:43:41.819Z,7.00
2023-02-16T10:46:30.063Z,7.04
2023-02-16T10:49:05.569Z,7.08
2023-02-16T10:51:44.829Z,7.17
2023-02-16T10:54:38.880Z,7.18
2023-02-16T10:57:37.038Z,7.19
2023-02-16T11:00:27.526Z,7.18
2023-02-16T11:07:46.124Z,7.25
2023-02-16T11:11:13.454Z,7.33
2023-02-16T11:19:37.021Z,7.49
2023-02-16T11:26:15.520Z,7.70
2023-02-16T11:33:34.436Z,7.98
2023-02-16T11:36:46.181Z,8.02
2023-02-16T11:39:34.148Z,8.07
2023-02-16T11:49:59.269Z,8.31
2023-02-16T11:55:36.311Z,8.47
2023-02-16T11:58:26.605Z,8.50
2023-02-16T12:04:44.054Z,8.52
2023-02-16T12:08:34.790Z,8.57
2023-02-16T12:15:10.669Z,8.72
2023-02-16T12:18:08.668Z,8.69
2023-02-16T12:21:18.204Z,8.74
2023-02-16T12:27:41.228Z,8.70
2023-02-16T12:30:37.170Z,8.75
2023-02-16T12:33:50.063Z,8.78
2023-02-16T12:36:48.900Z,8.88
2023-02-16T12:40:00.427Z,8.89
2023-02-16T12:42:57.112Z,8.93
2023-02-16T12:45:33.389Z,8.90
2023-02-16T12:48:37.048Z,8.82
2023-02-16T12:54:37.723Z,8.67
2023-02-16T12:57:35.105Z,8.63
2023-02-16T13:00:22.483Z,8.59
2023-02-16T13:03:05.014Z,8.62
2023-02-16T13:05:38.203Z,8.65
2023-02-16T13:08:20.830Z,8.67
2023-02-16T13:11:11.940Z,8.70
2023-02-16T13:13:41.736Z,8.68
2023-02-16T13:16:57.050Z,8.61
2023-02-16T13:19:39.872Z,8.57
2023-02-16T13:23:23.997Z,8.55
2023-02-16T13:27:01.437Z,8.55
2023-02-16T13:29:56.501Z,8.55
2023-02-16T13:33:09.568Z,8.56
2023-02-16T13:36:29.126Z,8.56
2023-02-16T13:39:28.054Z,8.59
2023-02-16T13:42:19.079Z,8.67
2023-02-16T13:44:54.099Z,8.74
2023-02-16T13:47:40.988Z,8.81
2023-02-16T13:50:23.867Z,8.82
2023-02-16T13:53:19.041Z,8.80
2023-02-16T13:56:22.659Z,8.77
2023-02-16T13:59:21.780Z,8.75
2023-02-16T14:05:12.994Z,8.70
2023-02-16T14:08:26.214Z,8.69
2023-02-16T14:10:55.233Z,8.69
2023-02-16T14:16:34.677Z,8.74
2023-02-16T14:19:20.113Z,8.78
2023-02-16T14:22:12.822Z,8.85
2023-02-16T14:27:46.135Z,8.93
2023-02-16T14:30:56.060Z,8.89
2023-02-16T14:34:01.204Z,8.74
2023-02-16T14:36:30.725Z,8.65
2023-02-16T14:39:01.835Z,8.55
2023-02-16T14:41:44.186Z,8.46
2023-02-16T14:44:49.535Z,8.36
2023-02-16T14:47:34.314Z,8.24
2023-02-16T14:50:40.956Z,8.18
2023-02-16T14:53:34.484Z,8.09
2023-02-16T14:56:20.454Z,8.03
2023-02-16T14:59:38.011Z,7.97
2023-02-16T15:02:35.700Z,7.91
2023-02-16T15:05:25.871Z,7.88
2023-02-16T15:08:24.242Z,7.89
2023-02-16T15:11:26.693Z,7.82
2023-02-16T15:13:55.944Z,7.74
2023-02-16T15:16:42.342Z,7.64
2023-02-16T15:19:25.592Z,7.52
2023-02-16T15:22:22.657Z,7.42
2023-02-16T15:25:27.004Z,7.30
2023-02-16T15:28:05.012Z,7.19
2023-02-16T15:30:36.980Z,7.11
2023-02-16T15:33:34.496Z,7.01
2023-02-16T15:36:14.500Z,6.89
2023-02-16T15:39:01.665Z,6.76
2023-02-16T15:41:54.312Z,6.67
2023-02-16T15:44:35.756Z,6.57
2023-02-16T15:47:26.713Z,6.49
2023-02-16T15:50:14.639Z,6.40
2023-02-16T15:55:47.510Z,6.17
2023-02-16T15:58:29.733Z,6.05
2023-02-16T16:00:58.581Z,5.98
2023-02-16T16:03:46.658Z,5.85
2023-02-16T16:06:15.375Z,5.74
2023-02-16T16:08:44.645Z,5.60
2023-02-16T16:13:55.914Z,5.44
2023-02-16T16:22:39.460Z,5.27
2023-02-16T16:25:46.536Z,5.06
2023-02-16T16:28:36.134Z,5.01
2023-02-16T16:34:07.468Z,4.91
2023-02-16T16:36:59.177Z,4.82
2023-02-16T16:39:31.938Z,4.72
2023-02-16T16:42:00.649Z,4.64
2023-02-16T16:44:41.340Z,4.59
2023-02-16T16:47:28.630Z,4.49
2023-02-16T16:50:10.934Z,4.36
2023-02-16T16:52:50.792Z,4.25
2023-02-16T16:55:34.967Z,3.86
2023-02-16T16:58:08.720Z,3.54
2023-02-16T17:00:50.972Z,3.33
2023-02-16T17:03:19.693Z,3.29
2023-02-16T17:05:48.147Z,3.18
2023-02-16T17:08:16.412Z,3.08
2023-02-16T17:10:44.769Z,3.01
2023-02-16T17:13:28.032Z,2.89
2023-02-16T17:16:33.087Z,2.78
2023-02-16T17:19:01.549Z,2.56
2023-02-16T17:21:46.126Z,2.37
2023-02-16T17:24:15.705Z,2.27
2023-02-16T17:26:44.350Z,2.23
2023-02-16T17:29:27.292Z,2.42
2023-02-16T17:31:56.645Z,2.50
2023-02-16T17:34:30.286Z,2.51
2023-02-16T17:37:03.685Z,2.43
2023-02-16T17:39:32.546Z,2.41
2023-02-16T17:42:01.372Z,2.24
2023-02-16T17:44:30.329Z,2.03
2023-02-16T17:46:59.477Z,2.07
2023-02-16T17:49:28.585Z,2.12
2023-02-16T17:51:56.966Z,2.27
2023-02-16T17:54:25.442Z,2.25
2023-02-16T17:56:54.087Z,2.21
2023-02-16T17:59:22.527Z,2.13
2023-02-16T18:01:51.067Z,1.89
2023-02-16T18:04:19.671Z,1.96
2023-02-16T18:06:49.040Z,1.94
2023-02-16T18:09:24.484Z,1.96
2023-02-16T18:11:53.085Z,1.95
2023-02-16T18:14:21.662Z,1.86
2023-02-16T18:17:04.852Z,1.67
2023-02-16T18:19:46.946Z,1.45
2023-02-16T18:22:15.365Z,1.41
2023-02-16T18:24:44.584Z,1.50
2023-02-16T18:27:13.986Z,1.56
2023-02-16T18:29:42.311Z,1.60
2023-02-16T18:32:10.749Z,1.70
2023-02-16T18:34:39.254Z,1.69
2023-02-16T18:37:21.451Z,1.64
2023-02-16T18:39:49.999Z,1.52
2023-02-16T18:42:18.753Z,1.38
2023-02-16T18:45:00.933Z,1.39
2023-02-16T18:47:46.064Z,1.33
2023-02-16T18:50:28.441Z,1.19
2023-02-16T18:52:56.978Z,1.16
2023-02-16T18:55:28.164Z,1.18
2023-02-16T18:58:14.499Z,1.11
2023-02-16T19:00:44.194Z,1.08
2023-02-16T19:03:12.734Z,1.07
2023-02-16T19:05:41.650Z,1.09
2023-02-16T19:08:10.166Z,1.11
2023-02-16T19:10:52.514Z,1.17
2023-02-16T19:13:20.793Z,1.20
2023-02-16T19:16:04.001Z,1.24
2023-02-16T19:18:32.632Z,1.26
2023-02-16T19:21:15.759Z,1.26
2023-02-16T19:23:44.290Z,1.29
2023-02-16T19:26:17.434Z,1.29
2023-02-16T19:28:59.674Z,1.29
2023-02-16T19:31:31.742Z,1.29
2023-02-16T19:36:43.556Z,1.30
2023-02-16T19:42:07.674Z,1.30
2023-02-16T19:44:36.988Z,1.33
2023-02-16T19:47:06.348Z,1.37
2023-02-16T19:49:36.503Z,1.42
2023-02-16T19:52:18.787Z,1.45
2023-02-16T19:54:47.452Z,1.50
2023-02-16T19:57:16.512Z,1.55
2023-02-16T19:59:46.352Z,1.55
2023-02-16T20:02:15.885Z,1.54
2023-02-16T20:04:45.236Z,1.55
2023-02-16T20:07:13.750Z,1.54
2023-02-16T20:09:42.495Z,1.55
2023-02-16T20:12:11.147Z,1.55
2023-02-16T20:14:40.100Z,1.56
2023-02-16T20:17:08.592Z,1.58
2023-02-16T20:22:47.056Z,1.65
2023-02-16T20:25:15.891Z,1.68
2023-02-16T20:27:44.376Z,1.71
2023-02-16T20:30:21.773Z,1.76
2023-02-16T20:32:51.185Z,1.79
2023-02-16T20:35:20.063Z,1.84
2023-02-16T20:37:52.169Z,1.86
2023-02-16T20:40:23.154Z,1.91
2023-02-16T20:42:52.137Z,1.93
2023-02-16T20:45:22.181Z,1.97
2023-02-16T20:47:50.807Z,2.02
2023-02-16T20:50:19.251Z,2.05
2023-02-16T20:52:48.068Z,2.07
2023-02-16T20:55:16.588Z,2.10
2023-02-16T20:57:45.068Z,2.13
2023-02-16T21:00:21.768Z,2.19
2023-02-16T21:02:51.369Z,2.21
2023-02-16T21:05:21.421Z,2.19
2023-02-16T21:10:37.907Z,2.17
2023-02-16T21:13:06.322Z,2.16
2023-02-16T21:15:48.430Z,2.13
2023-02-16T21:18:30.769Z,2.12
2023-02-16T21:21:01.347Z,2.10
2023-02-16T21:23:46.842Z,2.11
2023-02-16T21:26:16.345Z,2.13
2023-02-16T21:28:58.387Z,2.13
2023-02-16T21:31:27.002Z,2.13
2023-02-16T21:34:09.538Z,2.09
2023-02-16T21:36:39.113Z,2.08
2023-02-16T21:39:07.558Z,2.09
2023-02-16T21:41:49.657Z,2.09
2023-02-16T21:44:18.527Z,2.08
2023-02-16T21:47:13.537Z,2.06
2023-02-16T21:49:42.117Z,2.06
2023-02-16T21:52:24.657Z,2.08
2023-02-16T21:55:07.284Z,2.09
2023-02-16T21:57:49.881Z,2.12
2023-02-16T22:00:32.160Z,2.15
2023-02-16T22:05:42.728Z,2.19
2023-02-16T22:08:24.885Z,2.22
2023-02-16T22:10:53.268Z,2.24
2023-02-16T22:13:21.513Z,2.23
2023-02-16T22:15:49.707Z,2.23
2023-02-16T22:18:31.694Z,2.26
2023-02-16T22:21:14.227Z,2.27
2023-02-16T22:23:56.968Z,2.36
2023-02-16T22:26:29.521Z,2.41
2023-02-16T22:29:13.056Z,2.48
2023-02-16T22:31:55.203Z,2.53
2023-02-16T22:37:19.298Z,2.58
2023-02-16T22:40:01.333Z,2.60
2023-02-16T22:42:43.452Z,2.66
2023-02-16T22:45:11.941Z,2.69
2023-02-16T22:47:40.298Z,2.67
2023-02-16T22:50:22.840Z,2.69
2023-02-16T22:53:04.913Z,2.69
2023-02-16T22:55:46.930Z,2.70
2023-02-16T22:58:29.724Z,2.67
2023-02-16T23:01:42.870Z,2.60
2023-02-16T23:08:34.904Z,2.50
2023-02-16T23:11:59.900Z,2.48
2023-02-16T23:15:49.351Z,2.45
2023-02-16T23:19:26.034Z,2.42
2023-02-16T23:23:28.571Z,2.34
2023-02-16T23:27:17.532Z,2.21
2023-02-16T23:31:12.199Z,2.19
2023-02-16T23:34:38.529Z,2.29
2023-02-16T23:37:46.097Z,2.49
2023-02-16T23:46:12.457Z,2.90
2023-02-16T23:50:20.460Z,2.97
2023-02-16T23:54:13.772Z,3.02
2023-02-16T23:58:06.896Z,3.09
